createdAt,value
2018-06-30T00:02:20.149Z,99806.06
2018-06-30T00:04:51.928Z,99806.05
2018-06-30T00:07:21.114Z,99804.95
2018-06-30T00:09:48.791Z,99805.69
2018-06-30T00:12:16.487Z,99806.25
2018-06-30T00:14:44.133Z,99816.19
2018-06-30T00:17:12.227Z,99812.30
2018-06-30T00:19:41.027Z,99812.73
2018-06-30T00:22:08.760Z,99810.58
2018-06-30T00:24:36.511Z,99806.08
2018-06-30T00:27:10.307Z,99813.23
2018-06-30T00:29:37.954Z,99812.53
2018-06-30T00:32:05.726Z,99812.95
2018-06-30T00:34:33.405Z,99811.56
2018-06-30T00:37:01.120Z,99813.13
2018-06-30T00:39:28.892Z,99811.34
2018-06-30T00:41:56.656Z,99813.05
2018-06-30T00:44:24.336Z,99808.02
2018-06-30T00:46:52.023Z,99809.64
2018-06-30T00:49:27.959Z,99810.02
2018-06-30T00:51:55.762Z,99808.52
2018-06-30T00:54:23.740Z,99810.47
2018-06-30T00:56:51.442Z,99815.25
2018-06-30T00:59:19.090Z,99813.00
2018-06-30T01:01:46.849Z,99816.34
2018-06-30T01:04:14.525Z,99822.64
2018-06-30T01:06:42.312Z,99823.19
2018-06-30T01:09:09.966Z,99823.58
2018-06-30T01:11:37.639Z,99823.73
2018-06-30T01:14:05.336Z,99823.36
2018-06-30T01:16:32.993Z,99826.23
2018-06-30T01:19:00.765Z,99826.13
2018-06-30T01:21:28.501Z,99830.14
2018-06-30T01:23:56.171Z,99827.94
2018-06-30T01:26:23.831Z,99832.59
2018-06-30T01:28:51.515Z,99833.46
2018-06-30T01:31:19.157Z,99837.70
2018-06-30T01:33:46.773Z,99839.08
2018-06-30T01:36:14.487Z,99836.25
2018-06-30T01:38:42.165Z,99844.27
2018-06-30T01:41:09.828Z,99843.23
2018-06-30T01:43:37.471Z,99845.39
2018-06-30T01:46:05.189Z,99847.72
2018-06-30T01:48:32.952Z,99850.80
2018-06-30T01:51:00.618Z,99846.52
2018-06-30T01:53:28.330Z,99853.16
2018-06-30T01:55:55.986Z,99844.94
2018-06-30T01:58:23.708Z,99849.18
2018-06-30T02:00:51.412Z,99852.05
2018-06-30T02:03:19.125Z,99853.34
2018-06-30T02:05:46.798Z,99848.89
2018-06-30T02:08:14.495Z,99856.12
2018-06-30T02:10:42.129Z,99858.82
2018-06-30T02:13:09.749Z,99866.42
2018-06-30T02:15:37.439Z,99861.28
2018-06-30T02:18:05.232Z,99866.34
2018-06-30T02:20:32.942Z,99870.13
2018-06-30T02:23:00.652Z,99876.41
2018-06-30T02:25:28.299Z,99876.20
2018-06-30T02:27:56.010Z,99884.86
2018-06-30T02:30:23.699Z,99877.29
2018-06-30T02:32:51.385Z,99876.56
2018-06-30T02:35:19.047Z,99881.05
2018-06-30T02:37:47.071Z,99884.01
2018-06-30T02:40:14.726Z,99885.20
2018-06-30T02:42:42.381Z,99892.72
2018-06-30T02:45:10.044Z,99893.72
2018-06-30T02:47:37.808Z,99901.22
2018-06-30T02:50:05.778Z,99900.56
2018-06-30T02:52:33.470Z,99903.75
2018-06-30T02:55:01.174Z,99903.24
2018-06-30T02:57:28.887Z,99906.97
2018-06-30T02:59:56.497Z,99911.99
2018-06-30T03:02:24.054Z,99913.19
2018-06-30T03:04:51.662Z,99912.84
2018-06-30T03:07:19.373Z,99914.33
2018-06-30T03:09:47.077Z,99915.53
2018-06-30T03:12:14.744Z,99918.51
2018-06-30T03:14:42.398Z,99928.62
2018-06-30T03:17:10.068Z,99923.99
2018-06-30T03:19:37.785Z,99930.64
2018-06-30T03:22:05.797Z,99926.98
2018-06-30T03:24:33.501Z,99936.27
2018-06-30T03:27:08.595Z,99939.91
2018-06-30T03:29:36.292Z,99947.70
2018-06-30T03:32:04.248Z,99948.30
2018-06-30T03:34:31.898Z,99946.10
2018-06-30T03:36:59.609Z,99938.86
2018-06-30T03:39:27.266Z,99955.80
2018-06-30T03:41:54.902Z,99949.97
2018-06-30T03:44:22.741Z,99951.78
2018-06-30T03:46:50.394Z,99949.66
2018-06-30T03:49:18.070Z,99951.81
2018-06-30T03:51:45.717Z,99955.69
2018-06-30T03:54:13.400Z,99964.78
2018-06-30T03:56:41.046Z,99962.13
2018-06-30T03:59:08.675Z,99962.92
2018-06-30T04:01:36.349Z,99971.17
2018-06-30T04:04:03.976Z,99973.67
2018-06-30T04:06:31.625Z,99971.37
2018-06-30T04:08:59.279Z,99977.38
2018-06-30T04:11:26.990Z,99984.41
2018-06-30T04:13:54.649Z,99986.88
2018-06-30T04:16:22.388Z,99994.00
2018-06-30T04:18:50.052Z,99994.88
2018-06-30T04:21:17.723Z,99994.41
2018-06-30T04:23:45.430Z,100006.11
2018-06-30T04:26:13.340Z,100008.62
2018-06-30T04:28:41.052Z,100010.10
2018-06-30T04:31:08.734Z,100007.85
2018-06-30T04:33:36.386Z,100014.18
2018-06-30T04:36:04.110Z,100017.81
2018-06-30T04:38:32.011Z,100020.41
2018-06-30T04:40:59.633Z,100022.78
2018-06-30T04:43:27.270Z,100025.92
2018-06-30T04:45:54.935Z,100025.28
2018-06-30T04:48:22.645Z,100027.16
2018-06-30T04:50:50.293Z,100021.44
2018-06-30T04:53:18.108Z,100029.78
2018-06-30T04:55:45.752Z,100039.59
2018-06-30T04:58:13.355Z,100041.34
2018-06-30T05:00:41.071Z,100039.87
2018-06-30T05:03:08.801Z,100040.73
2018-06-30T05:05:36.470Z,100034.63
2018-06-30T05:08:04.190Z,100040.95
2018-06-30T05:10:31.829Z,100044.65
2018-06-30T05:12:59.471Z,100051.95
2018-06-30T05:15:27.210Z,100047.77
2018-06-30T05:17:54.793Z,100052.91
2018-06-30T05:20:22.560Z,100060.59
2018-06-30T05:22:50.240Z,100054.84
2018-06-30T05:25:17.936Z,100061.17
2018-06-30T05:27:45.608Z,100055.77
2018-06-30T05:30:13.292Z,100058.06
2018-06-30T05:32:41.037Z,100060.06
2018-06-30T05:35:08.668Z,100057.56
2018-06-30T05:37:36.307Z,100055.00
2018-06-30T05:40:04.288Z,100056.66
2018-06-30T05:42:31.974Z,100056.00
2018-06-30T05:44:59.621Z,100062.31
2018-06-30T05:47:27.357Z,100069.64
2018-06-30T05:49:55.028Z,100066.45
2018-06-30T05:52:22.762Z,100066.30
2018-06-30T05:54:50.470Z,100070.25
2018-06-30T05:57:18.477Z,100070.80
2018-06-30T05:59:46.165Z,100068.80
2018-06-30T06:02:13.799Z,100064.47
2018-06-30T06:04:41.461Z,100071.45
2018-06-30T06:07:09.175Z,100066.45
2018-06-30T06:09:36.872Z,100064.79
2018-06-30T06:12:04.541Z,100060.78
2018-06-30T06:14:32.502Z,100003.04
2018-06-30T06:17:00.205Z,100064.25
2018-06-30T06:19:27.831Z,100073.11
2018-06-30T06:21:55.581Z,100070.09
2018-06-30T06:24:23.349Z,100073.20
2018-06-30T06:26:51.179Z,100081.84
2018-06-30T06:29:18.805Z,100076.98
2018-06-30T06:31:46.520Z,100072.35
2018-06-30T06:34:14.288Z,100078.28
2018-06-30T06:36:41.990Z,100079.92
2018-06-30T06:39:10.488Z,100076.78
2018-06-30T06:41:38.354Z,100082.11
2018-06-30T06:44:06.063Z,100085.52
2018-06-30T06:46:33.810Z,100088.02
2018-06-30T06:49:01.604Z,100086.60
2018-06-30T06:51:29.252Z,100083.32
2018-06-30T06:53:57.006Z,100090.90
2018-06-30T06:56:24.825Z,100086.80
2018-06-30T06:58:52.722Z,100094.98
2018-06-30T07:01:20.413Z,100091.37
2018-06-30T07:03:48.210Z,100092.38
2018-06-30T07:06:15.935Z,100094.31
2018-06-30T07:08:43.809Z,100087.20
2018-06-30T07:11:11.456Z,100082.25
2018-06-30T07:13:39.227Z,100080.70
2018-06-30T07:16:07.666Z,100089.94
2018-06-30T07:18:35.417Z,100089.44
2018-06-30T07:21:03.110Z,100096.48
2018-06-30T07:23:30.793Z,100095.11
2018-06-30T07:25:58.535Z,100093.57
2018-06-30T07:28:26.340Z,100094.56
2018-06-30T07:30:54.060Z,100103.22
2018-06-30T07:33:21.848Z,100094.45
2018-06-30T07:35:49.651Z,100086.66
2018-06-30T07:38:17.341Z,100096.02
2018-06-30T07:40:45.307Z,100094.73
2018-06-30T07:43:13.113Z,100099.29
2018-06-30T07:45:40.875Z,100092.69
2018-06-30T07:48:08.539Z,100083.58
2018-06-30T07:50:36.322Z,100089.99
2018-06-30T07:53:04.371Z,100095.82
2018-06-30T07:55:32.150Z,100096.02
2018-06-30T07:57:59.859Z,100102.11
2018-06-30T08:00:27.878Z,100098.03
2018-06-30T08:02:55.642Z,100100.17
2018-06-30T08:05:23.363Z,100104.12
2018-06-30T08:07:51.044Z,100105.37
2018-06-30T08:10:18.731Z,100106.66
2018-06-30T08:12:46.391Z,100107.46
2018-06-30T08:15:13.991Z,100110.95
2018-06-30T08:17:42.352Z,100107.19
2018-06-30T08:20:10.020Z,100106.95
2018-06-30T08:22:37.681Z,100102.98
2018-06-30T08:25:05.728Z,100112.77
2018-06-30T08:27:33.628Z,100111.06
2018-06-30T08:30:01.347Z,100112.47
2018-06-30T08:32:29.059Z,100120.51
2018-06-30T08:35:16.373Z,100131.59
2018-06-30T08:37:44.274Z,100124.03
2018-06-30T08:40:11.966Z,100121.27
2018-06-30T08:42:39.707Z,100119.05
2018-06-30T08:45:07.460Z,100118.17
2018-06-30T08:47:35.195Z,100121.00
2018-06-30T08:50:03.889Z,100132.19
2018-06-30T08:52:31.576Z,100126.67
2018-06-30T08:54:59.198Z,100118.59
2018-06-30T08:57:27.726Z,100117.06
2018-06-30T08:59:55.532Z,100123.63
2018-06-30T09:02:23.305Z,100121.34
2018-06-30T09:04:51.057Z,100119.63
2018-06-30T09:07:18.791Z,100118.58
2018-06-30T09:09:46.654Z,100124.34
2018-06-30T09:12:14.375Z,100117.00
2018-06-30T09:14:42.093Z,100114.24
2018-06-30T09:17:09.857Z,100113.45
2018-06-30T09:19:38.124Z,100119.70
2018-06-30T09:22:06.235Z,100120.75
2018-06-30T09:24:34.841Z,100116.53
2018-06-30T09:27:02.664Z,100117.28
2018-06-30T09:29:30.427Z,100121.71
2018-06-30T09:31:58.079Z,100124.52
2018-06-30T09:34:25.769Z,100121.23
2018-06-30T09:36:53.435Z,100116.09
2018-06-30T09:39:21.197Z,100119.38
2018-06-30T09:41:48.886Z,100122.63
2018-06-30T09:44:16.620Z,100125.01
2018-06-30T09:46:44.350Z,100130.94
2018-06-30T09:49:12.009Z,100129.43
2018-06-30T09:51:39.680Z,100123.14
2018-06-30T09:54:07.309Z,100128.69
2018-06-30T09:56:35.044Z,100122.90
2018-06-30T09:59:02.766Z,100133.03
2018-06-30T10:01:30.394Z,100124.73
2018-06-30T10:03:58.090Z,100134.44
2018-06-30T10:06:25.721Z,100129.69
2018-06-30T10:08:53.410Z,100137.71
2018-06-30T10:11:21.162Z,100130.17
2018-06-30T10:13:48.843Z,100129.10
2018-06-30T10:16:17.627Z,100117.08
2018-06-30T10:18:45.297Z,100128.86
2018-06-30T10:24:11.204Z,100121.66
2018-06-30T10:32:11.847Z,100118.48
2018-06-30T10:34:39.580Z,100118.69
2018-06-30T10:37:07.342Z,100115.01
2018-06-30T10:39:35.078Z,100108.95
2018-06-30T10:42:02.805Z,100115.00
2018-06-30T10:44:30.632Z,100118.27
2018-06-30T10:46:58.600Z,100110.64
2018-06-30T10:49:26.423Z,100119.93
2018-06-30T10:51:54.139Z,100119.98
2018-06-30T10:54:21.950Z,100110.97
2018-06-30T10:56:49.657Z,100111.80
2018-06-30T10:59:17.338Z,100110.53
2018-06-30T11:01:45.101Z,100107.97
2018-06-30T11:04:12.895Z,100112.55
2018-06-30T11:06:40.607Z,100108.72
2018-06-30T11:09:10.343Z,100105.05
2018-06-30T11:11:38.090Z,100115.00
2018-06-30T11:14:05.839Z,100058.18
2018-06-30T11:16:33.631Z,100104.58
2018-06-30T11:19:01.375Z,100109.47
2018-06-30T11:21:29.161Z,100100.45
2018-06-30T11:23:56.782Z,100095.37
2018-06-30T11:26:24.544Z,100097.58
2018-06-30T11:28:52.358Z,100102.76
2018-06-30T11:31:19.995Z,100098.75
2018-06-30T11:33:47.739Z,100089.80
2018-06-30T11:36:15.525Z,100098.29
2018-06-30T11:38:43.251Z,100103.45
2018-06-30T11:41:10.987Z,100093.66
2018-06-30T11:43:38.727Z,100094.89
2018-06-30T11:46:06.431Z,100096.58
2018-06-30T11:48:34.211Z,100103.36
2018-06-30T11:51:01.851Z,100102.88
2018-06-30T11:53:29.499Z,100095.27
2018-06-30T11:55:57.179Z,100098.65
2018-06-30T11:58:24.918Z,100094.06
2018-06-30T12:00:52.644Z,100086.21
2018-06-30T12:03:20.314Z,100086.34
2018-06-30T12:05:48.146Z,100095.33
2018-06-30T12:08:15.874Z,100092.16
2018-06-30T12:10:43.594Z,100094.47
2018-06-30T12:13:11.313Z,100103.58
2018-06-30T12:15:39.521Z,100098.23
2018-06-30T12:18:07.812Z,100093.58
2018-06-30T12:20:35.688Z,100104.98
2018-06-30T12:23:03.387Z,100101.77
2018-06-30T12:25:31.109Z,100101.24
2018-06-30T12:27:59.018Z,100106.23
2018-06-30T12:30:26.787Z,100101.64
2018-06-30T12:32:54.549Z,100102.48
2018-06-30T12:35:22.253Z,100097.03
2018-06-30T12:37:50.098Z,100105.52
2018-06-30T12:40:17.766Z,100109.97
2018-06-30T12:42:45.452Z,100107.39
2018-06-30T12:45:13.166Z,100100.36
2018-06-30T12:47:40.874Z,100093.97
2018-06-30T12:50:08.724Z,100107.44
2018-06-30T12:52:36.456Z,100103.20
2018-06-30T12:55:04.182Z,100103.86
2018-06-30T12:57:31.832Z,100095.05
2018-06-30T12:59:59.650Z,100096.00
2018-06-30T13:02:27.417Z,100105.83
2018-06-30T13:04:55.107Z,100109.05
2018-06-30T13:07:22.829Z,100104.38
2018-06-30T13:09:50.502Z,100106.91
2018-06-30T13:12:18.223Z,100107.48
2018-06-30T13:14:45.957Z,100114.41
2018-06-30T13:17:13.573Z,100108.55
2018-06-30T13:19:41.284Z,100111.37
2018-06-30T13:22:09.013Z,100106.96
2018-06-30T13:24:36.740Z,100097.08
2018-06-30T13:27:04.593Z,100095.92
2018-06-30T13:29:32.388Z,100092.48
2018-06-30T13:32:00.441Z,100100.59
2018-06-30T13:34:28.236Z,100097.38
2018-06-30T13:36:55.858Z,100100.67
2018-06-30T13:39:23.570Z,100106.12
2018-06-30T13:41:51.290Z,100108.36
2018-06-30T13:44:18.958Z,100109.35
2018-06-30T13:46:46.690Z,100107.83
2018-06-30T13:49:14.436Z,100106.21
2018-06-30T13:51:42.117Z,100105.88
2018-06-30T13:54:10.738Z,100106.37
2018-06-30T13:56:39.017Z,100108.04
2018-06-30T13:59:06.659Z,100100.97
2018-06-30T14:01:34.463Z,100087.20
2018-06-30T14:04:02.102Z,100092.69
2018-06-30T14:06:29.859Z,100091.45
2018-06-30T14:08:57.553Z,100091.55
2018-06-30T14:11:25.875Z,100082.52
2018-06-30T14:13:53.522Z,100086.97
2018-06-30T14:16:21.221Z,100089.42
2018-06-30T14:18:49.907Z,100088.45
2018-06-30T14:21:18.185Z,100090.19
2018-06-30T14:23:46.575Z,100090.91
2018-06-30T14:26:14.335Z,100087.59
2018-06-30T14:28:42.123Z,100093.94
2018-06-30T14:31:09.779Z,100088.72
2018-06-30T14:33:37.645Z,100097.34
2018-06-30T14:36:05.423Z,100096.91
2018-06-30T14:38:33.065Z,100083.81
2018-06-30T14:41:00.817Z,100086.32
2018-06-30T14:43:28.525Z,100081.66
2018-06-30T14:45:57.289Z,100089.80
2018-06-30T14:48:25.113Z,100092.88
2018-06-30T14:50:52.779Z,100092.08
2018-06-30T14:53:20.468Z,100092.84
2018-06-30T14:55:48.225Z,100087.73
2018-06-30T14:58:15.920Z,100081.70
2018-06-30T15:00:43.657Z,100084.91
2018-06-30T15:03:11.462Z,100088.17
2018-06-30T15:05:39.122Z,100085.94
2018-06-30T15:08:06.924Z,100086.25
2018-06-30T15:10:34.709Z,100084.98
2018-06-30T15:13:02.637Z,100075.95
2018-06-30T15:15:30.404Z,100074.31
2018-06-30T15:17:58.233Z,100071.58
2018-06-30T15:20:25.969Z,100061.80
2018-06-30T15:22:53.704Z,100076.55
2018-06-30T15:25:21.690Z,100077.81
2018-06-30T15:27:49.360Z,100077.13
2018-06-30T15:30:17.045Z,100077.87
2018-06-30T15:32:44.611Z,100069.75
2018-06-30T15:35:12.259Z,100064.00
2018-06-30T15:37:39.925Z,100059.17
2018-06-30T15:40:08.045Z,100059.16
2018-06-30T15:42:35.822Z,100075.66
2018-06-30T15:45:05.360Z,100061.45
2018-06-30T15:47:33.097Z,100067.94
2018-06-30T15:50:00.793Z,100081.60
2018-06-30T15:52:28.510Z,100084.56
2018-06-30T15:54:56.283Z,100081.52
2018-06-30T15:57:23.997Z,100089.86
2018-06-30T15:59:51.662Z,100088.79
2018-06-30T16:02:19.454Z,100093.50
2018-06-30T16:04:47.137Z,100085.33
2018-06-30T16:07:14.903Z,100089.65
2018-06-30T16:09:42.769Z,100090.90
2018-06-30T16:12:10.612Z,100092.95
2018-06-30T16:14:38.322Z,100092.53
2018-06-30T16:17:06.024Z,100072.80
2018-06-30T16:19:33.846Z,100063.25
2018-06-30T16:22:01.609Z,100076.73
2018-06-30T16:24:29.320Z,100076.42
2018-06-30T16:26:56.937Z,100070.08
2018-06-30T16:29:24.689Z,100063.61
2018-06-30T16:31:52.367Z,100067.28
2018-06-30T16:34:20.096Z,100064.17
2018-06-30T16:36:47.806Z,100072.38
2018-06-30T16:39:15.513Z,100069.22
2018-06-30T16:41:43.206Z,100069.36
2018-06-30T16:44:10.941Z,100069.16
2018-06-30T16:46:38.766Z,100069.78
2018-06-30T16:49:07.046Z,100066.77
2018-06-30T16:51:34.939Z,100076.36
2018-06-30T16:54:02.635Z,100065.75
2018-06-30T16:56:30.451Z,100059.34
2018-06-30T16:58:58.231Z,100048.29
2018-06-30T17:01:25.915Z,100053.28
2018-06-30T17:03:53.670Z,100054.95
2018-06-30T17:06:21.486Z,100056.93
2018-06-30T17:08:49.302Z,100054.09
2018-06-30T17:11:17.038Z,100049.41
2018-06-30T17:13:44.836Z,100050.52
2018-06-30T17:16:12.578Z,100050.27
2018-06-30T17:18:40.334Z,100051.23
2018-06-30T17:21:08.432Z,100064.48
2018-06-30T17:23:36.199Z,100062.26
2018-06-30T17:26:04.011Z,100076.71
2018-06-30T17:28:31.724Z,100067.19
2018-06-30T17:30:59.438Z,100064.47
2018-06-30T17:33:27.343Z,100059.36
2018-06-30T17:35:55.100Z,100051.30
2018-06-30T17:38:22.866Z,100057.65
2018-06-30T17:40:51.058Z,100047.47
2018-06-30T17:43:18.874Z,100050.50
2018-06-30T17:45:46.763Z,100049.38
2018-06-30T17:48:14.792Z,100047.03
2018-06-30T17:50:42.582Z,100047.41
2018-06-30T17:53:10.751Z,100061.37
2018-06-30T17:55:38.417Z,100055.65
2018-06-30T17:58:06.304Z,100059.81
2018-06-30T18:00:34.304Z,100055.16
2018-06-30T18:03:02.046Z,100051.57
2018-06-30T18:05:30.529Z,100048.88
2018-06-30T18:07:58.263Z,100051.95
2018-06-30T18:10:26.006Z,100057.45
2018-06-30T18:12:53.668Z,100057.52
2018-06-30T18:15:21.676Z,100051.86
2018-06-30T18:17:49.379Z,100048.42
2018-06-30T18:20:17.195Z,100058.02
2018-06-30T18:22:44.932Z,100060.70
2018-06-30T18:25:12.981Z,100054.47
2018-06-30T18:27:40.753Z,100058.41
2018-06-30T18:30:08.536Z,100054.39
2018-06-30T18:32:36.324Z,100060.18
2018-06-30T18:35:04.817Z,100057.77
2018-06-30T18:37:32.556Z,100061.70
2018-06-30T18:40:00.379Z,100066.73
2018-06-30T18:42:28.784Z,100063.69
2018-06-30T18:44:56.582Z,100058.22
2018-06-30T18:47:24.220Z,100058.62
2018-06-30T18:49:51.987Z,100065.33
2018-06-30T18:52:19.822Z,100061.43
2018-06-30T18:54:47.582Z,100057.91
2018-06-30T18:57:15.402Z,100062.88
2018-06-30T18:59:43.143Z,100061.63
2018-06-30T19:02:10.969Z,100059.14
2018-06-30T19:04:38.815Z,100063.91
2018-06-30T19:07:06.584Z,100064.63
2018-06-30T19:09:34.312Z,100072.51
2018-06-30T19:12:02.056Z,100067.64
2018-06-30T19:14:29.781Z,100073.02
2018-06-30T19:16:57.533Z,100081.25
2018-06-30T19:19:25.268Z,100084.87
2018-06-30T19:21:53.103Z,100087.45
2018-06-30T19:24:20.875Z,100088.51
2018-06-30T19:26:48.646Z,100095.45
2018-06-30T19:29:16.344Z,100094.13
2018-06-30T19:31:44.319Z,100089.45
2018-06-30T19:34:12.053Z,100088.60
2018-06-30T19:36:41.177Z,100090.02
2018-06-30T19:39:10.289Z,100094.83
2018-06-30T19:41:37.941Z,100096.80
2018-06-30T19:44:05.650Z,100096.52
2018-06-30T19:46:33.443Z,100099.23
2018-06-30T19:49:01.407Z,100091.47
2018-06-30T19:51:29.327Z,100100.44
2018-06-30T19:53:57.069Z,100100.20
2018-06-30T19:56:24.855Z,100098.81
2018-06-30T19:58:53.363Z,100103.90
2018-06-30T20:01:21.977Z,100104.34
2018-06-30T20:03:49.646Z,100102.81
2018-06-30T20:06:17.295Z,100106.01
2018-06-30T20:08:44.904Z,100107.98
2018-06-30T20:11:12.630Z,100103.48
2018-06-30T20:13:40.415Z,100107.88
2018-06-30T20:16:08.075Z,100116.73
2018-06-30T20:18:35.887Z,100111.13
2018-06-30T20:21:03.574Z,100113.48
2018-06-30T20:23:31.317Z,100114.55
2018-06-30T20:25:59.210Z,100118.25
2018-06-30T20:28:27.232Z,100115.95
2018-06-30T20:30:55.171Z,100107.83
2018-06-30T20:33:22.893Z,100126.26
2018-06-30T20:35:50.594Z,100117.95
2018-06-30T20:38:18.304Z,100120.13
2018-06-30T20:40:46.030Z,100123.13
2018-06-30T20:43:13.800Z,100132.27
2018-06-30T20:45:42.731Z,100127.28
2018-06-30T20:48:10.488Z,100130.95
2018-06-30T20:50:38.453Z,100125.77
2018-06-30T20:53:06.454Z,100122.80
2018-06-30T20:55:34.302Z,100125.27
2018-06-30T20:58:02.160Z,100132.56
2018-06-30T21:00:30.016Z,100130.39
2018-06-30T21:02:58.369Z,100138.67
2018-06-30T21:05:26.227Z,100126.91
2018-06-30T21:07:54.041Z,100135.84
2018-06-30T21:10:21.769Z,100142.78
2018-06-30T21:12:49.671Z,100142.45
2018-06-30T21:15:17.900Z,100145.03
2018-06-30T21:17:45.645Z,100147.69
2018-06-30T21:20:13.355Z,100149.80
2018-06-30T21:22:41.137Z,100151.32
2018-06-30T21:25:08.967Z,100150.30
2018-06-30T21:27:36.736Z,100156.02
2018-06-30T21:30:04.820Z,100148.80
2018-06-30T21:32:32.498Z,100150.45
2018-06-30T21:35:00.247Z,100147.61
2018-06-30T21:37:28.003Z,100148.67
2018-06-30T21:39:55.737Z,100143.80
2018-06-30T21:42:23.541Z,100151.05
2018-06-30T21:44:51.361Z,100147.18
2018-06-30T21:47:19.276Z,100147.67
2018-06-30T21:49:46.962Z,100148.73
2018-06-30T21:52:14.908Z,100149.05
2018-06-30T21:54:42.666Z,100147.23
2018-06-30T21:57:10.481Z,100149.47
2018-06-30T21:59:38.232Z,100152.93
2018-06-30T22:02:07.821Z,100154.72
2018-06-30T22:04:35.929Z,100157.58
2018-06-30T22:07:03.713Z,100153.58
2018-06-30T22:09:31.409Z,100160.00
2018-06-30T22:11:59.144Z,100156.38
2018-06-30T22:14:26.834Z,100165.87
2018-06-30T22:16:54.620Z,100161.90
2018-06-30T22:19:22.326Z,100161.22
2018-06-30T22:21:50.044Z,100163.16
2018-06-30T22:24:17.799Z,100163.75
2018-06-30T22:26:45.535Z,100175.02
2018-06-30T22:29:13.263Z,100171.58
2018-06-30T22:31:41.027Z,100169.93
2018-06-30T22:34:08.623Z,100172.81
2018-06-30T22:36:36.430Z,100170.09
2018-06-30T22:39:07.051Z,100169.81
2018-06-30T22:41:34.741Z,100175.11
2018-06-30T22:44:02.530Z,100169.35
2018-06-30T22:46:30.303Z,100175.96
2018-06-30T22:48:58.073Z,100168.47
2018-06-30T22:51:26.007Z,100176.98
2018-06-30T22:53:53.797Z,100168.39
2018-06-30T22:56:21.499Z,100169.00
2018-06-30T22:58:49.239Z,100171.93
2018-06-30T23:01:16.899Z,100175.06
2018-06-30T23:03:44.691Z,100171.58
2018-06-30T23:06:12.419Z,100173.39
2018-06-30T23:08:45.952Z,100172.14
2018-06-30T23:11:13.721Z,100175.20
2018-06-30T23:13:41.369Z,100181.19
2018-06-30T23:16:09.101Z,100179.16
2018-06-30T23:18:36.794Z,100175.81
2018-06-30T23:21:04.539Z,100177.88
2018-06-30T23:23:32.201Z,100183.37
2018-06-30T23:25:59.877Z,100179.77
2018-06-30T23:28:27.630Z,100185.11
2018-06-30T23:30:55.350Z,100180.84
2018-06-30T23:33:23.045Z,100182.49
2018-06-30T23:35:50.721Z,100180.95
2018-06-30T23:38:18.400Z,100184.59
2018-06-30T23:40:46.055Z,100182.31
2018-06-30T23:43:13.712Z,100178.96
2018-06-30T23:45:41.334Z,100176.94
2018-06-30T23:48:08.962Z,100180.48
2018-06-30T23:50:36.606Z,100184.46
2018-06-30T23:53:04.344Z,100186.73
2018-06-30T23:55:31.914Z,100188.48
2018-06-30T23:57:59.541Z,100185.43
